sensor_id;sensor_type;location;lat;lon;timestamp;P1;durP1;ratioP1;P2;durP2;ratioP2
10132;SDS011;5106;50.926;7.080;2023-02-11T00:00:13;17.23;;;11.67;;
10132;SDS011;5106;50.926;7.080;2023-02-11T00:02:39;16.97;;;11.57;;
10132;SDS011;5106;50.926;7.080;2023-02-11T00:05:05;17.03;;;12.33;;
10132;SDS011;5106;50.926;7.080;2023-02-11T00:07:32;19.53;;;12.20;;
10132;SDS011;5106;50.926;7.080;2023-02-11T00:09:58;18.80;;;12.60;;
10132;SDS011;5106;50.926;7.080;2023-02-11T00:12:27;18.37;;;12.17;;
10132;SDS011;5106;50.926;7.080;2023-02-11T00:14:53;18.83;;;12.50;;
10132;SDS011;5106;50.926;7.080;2023-02-11T00:17:18;18.37;;;12.57;;
10132;SDS011;5106;50.926;7.080;2023-02-11T00:19:47;19.90;;;12.63;;
10132;SDS011;5106;50.926;7.080;2023-02-11T00:22:14;18.47;;;12.27;;
10132;SDS011;5106;50.926;7.080;2023-02-11T00:24:40;15.73;;;10.77;;
10132;SDS011;5106;50.926;7.080;2023-02-11T00:27:05;16.87;;;11.63;;
10132;SDS011;5106;50.926;7.080;2023-02-11T00:29:31;15.17;;;10.87;;
10132;SDS011;5106;50.926;7.080;2023-02-11T00:31:56;16.80;;;12.10;;
10132;SDS011;5106;50.926;7.080;2023-02-11T00:34:22;17.60;;;11.93;;
10132;SDS011;5106;50.926;7.080;2023-02-11T00:36:48;18.77;;;12.40;;
10132;SDS011;5106;50.926;7.080;2023-02-11T00:39:14;19.47;;;12.73;;
10132;SDS011;5106;50.926;7.080;2023-02-11T00:41:40;18.77;;;12.93;;
10132;SDS011;5106;50.926;7.080;2023-02-11T00:44:05;16.83;;;11.63;;
10132;SDS011;5106;50.926;7.080;2023-02-11T00:46:31;20.23;;;12.53;;
10132;SDS011;5106;50.926;7.080;2023-02-11T00:48:57;20.10;;;12.93;;
10132;SDS011;5106;50.926;7.080;2023-02-11T00:51:23;19.70;;;13.03;;
10132;SDS011;5106;50.926;7.080;2023-02-11T00:53:50;19.10;;;12.10;;
10132;SDS011;5106;50.926;7.080;2023-02-11T00:56:16;20.43;;;12.97;;
10132;SDS011;5106;50.926;7.080;2023-02-11T00:58:42;18.20;;;12.60;;
10132;SDS011;5106;50.926;7.080;2023-02-11T01:01:07;21.80;;;13.00;;
10132;SDS011;5106;50.926;7.080;2023-02-11T01:03:33;21.17;;;13.13;;
10132;SDS011;5106;50.926;7.080;2023-02-11T01:05:59;20.23;;;13.53;;
10132;SDS011;5106;50.926;7.080;2023-02-11T01:08:25;19.67;;;12.57;;
10132;SDS011;5106;50.926;7.080;2023-02-11T01:10:58;23.67;;;12.97;;
10132;SDS011;5106;50.926;7.080;2023-02-11T01:13:25;19.93;;;12.93;;
10132;SDS011;5106;50.926;7.080;2023-02-11T01:15:52;19.30;;;12.87;;
10132;SDS011;5106;50.926;7.080;2023-02-11T01:18:18;20.57;;;13.13;;
10132;SDS011;5106;50.926;7.080;2023-02-11T01:20:43;20.30;;;12.73;;
10132;SDS011;5106;50.926;7.080;2023-02-11T01:23:09;18.93;;;12.93;;
10132;SDS011;5106;50.926;7.080;2023-02-11T01:25:34;19.50;;;13.07;;
10132;SDS011;5106;50.926;7.080;2023-02-11T01:28:00;17.70;;;12.23;;
10132;SDS011;5106;50.926;7.080;2023-02-11T01:30:26;19.47;;;13.40;;
10132;SDS011;5106;50.926;7.080;2023-02-11T01:32:51;19.67;;;12.70;;
10132;SDS011;5106;50.926;7.080;2023-02-11T01:35:17;19.53;;;12.33;;
10132;SDS011;5106;50.926;7.080;2023-02-11T01:37:43;18.87;;;11.97;;
10132;SDS011;5106;50.926;7.080;2023-02-11T01:40:15;19.23;;;12.23;;
10132;SDS011;5106;50.926;7.080;2023-02-11T01:42:41;19.43;;;12.90;;
10132;SDS011;5106;50.926;7.080;2023-02-11T01:48:04;18.10;;;11.97;;
10132;SDS011;5106;50.926;7.080;2023-02-11T01:50:29;17.13;;;11.37;;
10132;SDS011;5106;50.926;7.080;2023-02-11T01:52:55;18.17;;;12.07;;
10132;SDS011;5106;50.926;7.080;2023-02-11T01:55:41;17.97;;;11.90;;
10132;SDS011;5106;50.926;7.080;2023-02-11T01:58:30;16.97;;;11.30;;
10132;SDS011;5106;50.926;7.080;2023-02-11T02:00:58;17.97;;;11.87;;
10132;SDS011;5106;50.926;7.080;2023-02-11T02:03:25;17.63;;;11.43;;
10132;SDS011;5106;50.926;7.080;2023-02-11T02:06:02;18.40;;;12.07;;
10132;SDS011;5106;50.926;7.080;2023-02-11T02:11:06;20.00;;;14.03;;
10132;SDS011;5106;50.926;7.080;2023-02-11T02:13:33;19.80;;;14.13;;
10132;SDS011;5106;50.926;7.080;2023-02-11T02:16:01;23.07;;;15.40;;
10132;SDS011;5106;50.926;7.080;2023-02-11T02:24:07;22.93;;;14.90;;
10132;SDS011;5106;50.926;7.080;2023-02-11T02:37:45;21.70;;;14.47;;
10132;SDS011;5106;50.926;7.080;2023-02-11T02:40:20;19.97;;;14.93;;
10132;SDS011;5106;50.926;7.080;2023-02-11T02:42:49;22.33;;;15.53;;
10132;SDS011;5106;50.926;7.080;2023-02-11T02:45:16;20.73;;;14.57;;
10132;SDS011;5106;50.926;7.080;2023-02-11T02:47:43;23.40;;;14.50;;
10132;SDS011;5106;50.926;7.080;2023-02-11T02:50:09;22.73;;;15.17;;
10132;SDS011;5106;50.926;7.080;2023-02-11T02:52:52;22.33;;;14.73;;
10132;SDS011;5106;50.926;7.080;2023-02-11T03:10:21;22.97;;;15.03;;
10132;SDS011;5106;50.926;7.080;2023-02-11T03:12:49;23.47;;;15.63;;
10132;SDS011;5106;50.926;7.080;2023-02-11T03:15:17;26.63;;;15.40;;
10132;SDS011;5106;50.926;7.080;2023-02-11T03:17:46;21.47;;;14.70;;
10132;SDS011;5106;50.926;7.080;2023-02-11T03:20:15;22.83;;;15.80;;
10132;SDS011;5106;50.926;7.080;2023-02-11T03:25:52;21.47;;;15.63;;
10132;SDS011;5106;50.926;7.080;2023-02-11T03:28:31;23.43;;;15.43;;
10132;SDS011;5106;50.926;7.080;2023-02-11T03:33:52;23.90;;;16.00;;
10132;SDS011;5106;50.926;7.080;2023-02-11T03:36:21;26.13;;;16.10;;
10132;SDS011;5106;50.926;7.080;2023-02-11T03:38:53;24.00;;;16.30;;
10132;SDS011;5106;50.926;7.080;2023-02-11T03:41:22;24.40;;;15.60;;
10132;SDS011;5106;50.926;7.080;2023-02-11T03:43:50;23.80;;;16.47;;
10132;SDS011;5106;50.926;7.080;2023-02-11T03:46:22;24.30;;;15.37;;
10132;SDS011;5106;50.926;7.080;2023-02-11T03:48:52;23.87;;;16.70;;
10132;SDS011;5106;50.926;7.080;2023-02-11T03:51:21;25.33;;;16.27;;
10132;SDS011;5106;50.926;7.080;2023-02-11T03:53:49;21.63;;;16.10;;
10132;SDS011;5106;50.926;7.080;2023-02-11T03:56:19;26.47;;;16.50;;
10132;SDS011;5106;50.926;7.080;2023-02-11T03:58:48;24.03;;;16.27;;
10132;SDS011;5106;50.926;7.080;2023-02-11T04:01:14;23.60;;;15.77;;
10132;SDS011;5106;50.926;7.080;2023-02-11T04:03:40;20.17;;;15.27;;
10132;SDS011;5106;50.926;7.080;2023-02-11T04:06:06;27.27;;;16.20;;
10132;SDS011;5106;50.926;7.080;2023-02-11T04:08:31;22.27;;;14.63;;
10132;SDS011;5106;50.926;7.080;2023-02-11T04:10:57;24.63;;;15.27;;
10132;SDS011;5106;50.926;7.080;2023-02-11T04:13:23;22.90;;;15.87;;
10132;SDS011;5106;50.926;7.080;2023-02-11T04:15:49;23.10;;;15.83;;
10132;SDS011;5106;50.926;7.080;2023-02-11T04:18:14;24.30;;;16.37;;
10132;SDS011;5106;50.926;7.080;2023-02-11T04:20:40;23.07;;;15.97;;
10132;SDS011;5106;50.926;7.080;2023-02-11T04:23:05;22.97;;;15.60;;
10132;SDS011;5106;50.926;7.080;2023-02-11T04:25:31;24.00;;;15.80;;
10132;SDS011;5106;50.926;7.080;2023-02-11T04:27:57;23.83;;;16.00;;
10132;SDS011;5106;50.926;7.080;2023-02-11T04:30:22;23.97;;;15.57;;
10132;SDS011;5106;50.926;7.080;2023-02-11T04:32:48;21.20;;;15.40;;
10132;SDS011;5106;50.926;7.080;2023-02-11T04:35:13;21.70;;;15.47;;
10132;SDS011;5106;50.926;7.080;2023-02-11T04:37:39;21.57;;;15.80;;
10132;SDS011;5106;50.926;7.080;2023-02-11T04:40:05;21.07;;;15.57;;
10132;SDS011;5106;50.926;7.080;2023-02-11T04:42:31;21.50;;;15.07;;
10132;SDS011;5106;50.926;7.080;2023-02-11T04:44:56;23.03;;;15.17;;
10132;SDS011;5106;50.926;7.080;2023-02-11T04:47:22;21.73;;;14.70;;
10132;SDS011;5106;50.926;7.080;2023-02-11T04:49:48;24.03;;;15.27;;
10132;SDS011;5106;50.926;7.080;2023-02-11T04:52:13;22.40;;;15.57;;
10132;SDS011;5106;50.926;7.080;2023-02-11T04:54:39;26.37;;;14.97;;
10132;SDS011;5106;50.926;7.080;2023-02-11T04:57:05;22.60;;;15.07;;
10132;SDS011;5106;50.926;7.080;2023-02-11T04:59:30;25.43;;;14.77;;
10132;SDS011;5106;50.926;7.080;2023-02-11T05:01:56;24.17;;;15.27;;
10132;SDS011;5106;50.926;7.080;2023-02-11T05:04:22;20.93;;;15.77;;
10132;SDS011;5106;50.926;7.080;2023-02-11T05:06:47;25.57;;;15.97;;
10132;SDS011;5106;50.926;7.080;2023-02-11T05:09:13;23.23;;;16.43;;
10132;SDS011;5106;50.926;7.080;2023-02-11T05:11:39;22.83;;;15.53;;
10132;SDS011;5106;50.926;7.080;2023-02-11T05:14:05;21.93;;;15.50;;
10132;SDS011;5106;50.926;7.080;2023-02-11T05:16:31;21.30;;;15.70;;
10132;SDS011;5106;50.926;7.080;2023-02-11T05:18:57;23.40;;;16.47;;
10132;SDS011;5106;50.926;7.080;2023-02-11T05:21:23;21.87;;;14.80;;
10132;SDS011;5106;50.926;7.080;2023-02-11T05:23:49;22.57;;;15.07;;
10132;SDS011;5106;50.926;7.080;2023-02-11T05:26:14;26.23;;;15.67;;
10132;SDS011;5106;50.926;7.080;2023-02-11T05:28:56;22.10;;;14.67;;
10132;SDS011;5106;50.926;7.080;2023-02-11T05:31:21;20.10;;;14.70;;
10132;SDS011;5106;50.926;7.080;2023-02-11T05:33:47;20.87;;;15.07;;
10132;SDS011;5106;50.926;7.080;2023-02-11T05:36:13;22.87;;;14.97;;
10132;SDS011;5106;50.926;7.080;2023-02-11T05:38:38;23.37;;;15.60;;
10132;SDS011;5106;50.926;7.080;2023-02-11T05:41:05;20.00;;;14.43;;
10132;SDS011;5106;50.926;7.080;2023-02-11T05:43:31;23.63;;;15.57;;
10132;SDS011;5106;50.926;7.080;2023-02-11T05:45:59;22.10;;;15.53;;
10132;SDS011;5106;50.926;7.080;2023-02-11T05:48:24;25.63;;;15.93;;
10132;SDS011;5106;50.926;7.080;2023-02-11T05:50:50;21.90;;;14.57;;
10132;SDS011;5106;50.926;7.080;2023-02-11T05:53:15;23.73;;;15.47;;
10132;SDS011;5106;50.926;7.080;2023-02-11T05:55:41;24.17;;;14.93;;
10132;SDS011;5106;50.926;7.080;2023-02-11T05:58:07;21.60;;;15.53;;
10132;SDS011;5106;50.926;7.080;2023-02-11T06:00:33;21.53;;;15.17;;
10132;SDS011;5106;50.926;7.080;2023-02-11T06:02:59;22.97;;;16.10;;
10132;SDS011;5106;50.926;7.080;2023-02-11T06:05:25;21.67;;;14.50;;
10132;SDS011;5106;50.926;7.080;2023-02-11T06:07:50;25.23;;;15.67;;
10132;SDS011;5106;50.926;7.080;2023-02-11T06:10:16;26.73;;;15.17;;
10132;SDS011;5106;50.926;7.080;2023-02-11T06:12:42;21.87;;;16.23;;
10132;SDS011;5106;50.926;7.080;2023-02-11T06:15:08;23.03;;;15.30;;
10132;SDS011;5106;50.926;7.080;2023-02-11T06:17:34;23.90;;;15.50;;
10132;SDS011;5106;50.926;7.080;2023-02-11T06:20:01;28.60;;;15.57;;
10132;SDS011;5106;50.926;7.080;2023-02-11T06:22:28;22.00;;;15.43;;
10132;SDS011;5106;50.926;7.080;2023-02-11T06:24:54;26.33;;;16.33;;
10132;SDS011;5106;50.926;7.080;2023-02-11T06:27:20;27.83;;;16.73;;
10132;SDS011;5106;50.926;7.080;2023-02-11T06:29:45;24.90;;;15.90;;
10132;SDS011;5106;50.926;7.080;2023-02-11T06:32:11;24.87;;;16.13;;
10132;SDS011;5106;50.926;7.080;2023-02-11T06:34:38;29.40;;;16.83;;
10132;SDS011;5106;50.926;7.080;2023-02-11T06:37:04;25.73;;;16.27;;
10132;SDS011;5106;50.926;7.080;2023-02-11T06:39:29;27.10;;;17.20;;
10132;SDS011;5106;50.926;7.080;2023-02-11T06:41:55;21.60;;;15.03;;
10132;SDS011;5106;50.926;7.080;2023-02-11T06:44:20;21.97;;;14.80;;
10132;SDS011;5106;50.926;7.080;2023-02-11T06:46:46;32.03;;;18.13;;
10132;SDS011;5106;50.926;7.080;2023-02-11T06:49:12;25.30;;;16.50;;
10132;SDS011;5106;50.926;7.080;2023-02-11T06:51:37;26.13;;;17.13;;
10132;SDS011;5106;50.926;7.080;2023-02-11T06:54:04;25.47;;;16.30;;
10132;SDS011;5106;50.926;7.080;2023-02-11T06:56:30;27.30;;;16.87;;
10132;SDS011;5106;50.926;7.080;2023-02-11T06:58:56;26.40;;;17.33;;
10132;SDS011;5106;50.926;7.080;2023-02-11T07:01:22;25.07;;;17.17;;
10132;SDS011;5106;50.926;7.080;2023-02-11T07:03:49;25.43;;;17.63;;
10132;SDS011;5106;50.926;7.080;2023-02-11T07:06:17;23.60;;;16.67;;
10132;SDS011;5106;50.926;7.080;2023-02-11T07:08:45;24.37;;;16.43;;
10132;SDS011;5106;50.926;7.080;2023-02-11T07:11:12;23.90;;;16.10;;
10132;SDS011;5106;50.926;7.080;2023-02-11T07:13:39;27.80;;;17.70;;
10132;SDS011;5106;50.926;7.080;2023-02-11T07:16:05;27.90;;;18.20;;
10132;SDS011;5106;50.926;7.080;2023-02-11T07:18:32;27.97;;;18.37;;
10132;SDS011;5106;50.926;7.080;2023-02-11T07:20:58;27.77;;;18.30;;
10132;SDS011;5106;50.926;7.080;2023-02-11T07:23:24;26.97;;;17.90;;
10132;SDS011;5106;50.926;7.080;2023-02-11T07:25:49;27.00;;;18.27;;
10132;SDS011;5106;50.926;7.080;2023-02-11T07:28:15;27.80;;;17.87;;
10132;SDS011;5106;50.926;7.080;2023-02-11T07:30:41;27.47;;;18.93;;
10132;SDS011;5106;50.926;7.080;2023-02-11T07:33:06;27.73;;;17.77;;
10132;SDS011;5106;50.926;7.080;2023-02-11T07:35:32;28.00;;;18.43;;
10132;SDS011;5106;50.926;7.080;2023-02-11T07:37:57;27.93;;;18.53;;
10132;SDS011;5106;50.926;7.080;2023-02-11T07:40:23;23.97;;;17.57;;
10132;SDS011;5106;50.926;7.080;2023-02-11T07:42:48;29.73;;;18.33;;
10132;SDS011;5106;50.926;7.080;2023-02-11T07:45:14;31.07;;;19.67;;
10132;SDS011;5106;50.926;7.080;2023-02-11T07:47:40;29.20;;;18.90;;
10132;SDS011;5106;50.926;7.080;2023-02-11T07:50:06;28.13;;;18.57;;
10132;SDS011;5106;50.926;7.080;2023-02-11T07:52:33;29.93;;;18.73;;
10132;SDS011;5106;50.926;7.080;2023-02-11T07:54:59;30.60;;;19.20;;
10132;SDS011;5106;50.926;7.080;2023-02-11T07:57:24;32.73;;;20.17;;
10132;SDS011;5106;50.926;7.080;2023-02-11T07:59:50;30.47;;;19.43;;
10132;SDS011;5106;50.926;7.080;2023-02-11T08:02:16;30.73;;;19.63;;
10132;SDS011;5106;50.926;7.080;2023-02-11T08:04:44;26.40;;;18.57;;
10132;SDS011;5106;50.926;7.080;2023-02-11T08:07:13;32.73;;;20.57;;
10132;SDS011;5106;50.926;7.080;2023-02-11T08:09:39;30.00;;;20.20;;
10132;SDS011;5106;50.926;7.080;2023-02-11T08:12:05;29.90;;;20.43;;
10132;SDS011;5106;50.926;7.080;2023-02-11T08:14:31;32.13;;;19.77;;
10132;SDS011;5106;50.926;7.080;2023-02-11T08:16:56;29.33;;;18.60;;
10132;SDS011;5106;50.926;7.080;2023-02-11T08:19:22;27.53;;;19.43;;
10132;SDS011;5106;50.926;7.080;2023-02-11T08:21:48;30.57;;;19.37;;
10132;SDS011;5106;50.926;7.080;2023-02-11T08:24:13;30.43;;;19.27;;
10132;SDS011;5106;50.926;7.080;2023-02-11T08:26:39;29.77;;;19.50;;
10132;SDS011;5106;50.926;7.080;2023-02-11T08:29:07;29.93;;;20.20;;
10132;SDS011;5106;50.926;7.080;2023-02-11T08:31:35;29.33;;;20.10;;
10132;SDS011;5106;50.926;7.080;2023-02-11T08:34:03;32.63;;;20.07;;
10132;SDS011;5106;50.926;7.080;2023-02-11T08:36:30;33.93;;;20.10;;
10132;SDS011;5106;50.926;7.080;2023-02-11T08:38:58;30.10;;;20.50;;
10132;SDS011;5106;50.926;7.080;2023-02-11T08:41:27;36.43;;;21.63;;
10132;SDS011;5106;50.926;7.080;2023-02-11T08:43:53;35.40;;;21.47;;
10132;SDS011;5106;50.926;7.080;2023-02-11T08:46:19;31.30;;;20.87;;
10132;SDS011;5106;50.926;7.080;2023-02-11T08:48:45;34.47;;;20.80;;
10132;SDS011;5106;50.926;7.080;2023-02-11T08:51:13;33.40;;;20.53;;
10132;SDS011;5106;50.926;7.080;2023-02-11T08:53:43;30.47;;;21.27;;
10132;SDS011;5106;50.926;7.080;2023-02-11T08:56:09;31.53;;;20.33;;
10132;SDS011;5106;50.926;7.080;2023-02-11T08:58:36;29.17;;;20.10;;
10132;SDS011;5106;50.926;7.080;2023-02-11T09:01:07;32.47;;;20.93;;
10132;SDS011;5106;50.926;7.080;2023-02-11T09:03:34;33.00;;;19.63;;
10132;SDS011;5106;50.926;7.080;2023-02-11T09:06:03;32.87;;;20.73;;
10132;SDS011;5106;50.926;7.080;2023-02-11T09:08:30;30.70;;;20.33;;
10132;SDS011;5106;50.926;7.080;2023-02-11T09:10:56;33.87;;;21.87;;
10132;SDS011;5106;50.926;7.080;2023-02-11T09:13:21;33.17;;;20.33;;
10132;SDS011;5106;50.926;7.080;2023-02-11T09:15:47;33.30;;;20.63;;
10132;SDS011;5106;50.926;7.080;2023-02-11T09:18:13;31.63;;;20.33;;
10132;SDS011;5106;50.926;7.080;2023-02-11T09:20:38;35.53;;;21.20;;
10132;SDS011;5106;50.926;7.080;2023-02-11T09:23:04;30.93;;;19.60;;
10132;SDS011;5106;50.926;7.080;2023-02-11T09:25:30;30.03;;;19.07;;
10132;SDS011;5106;50.926;7.080;2023-02-11T09:27:55;30.67;;;19.47;;
10132;SDS011;5106;50.926;7.080;2023-02-11T09:30:21;27.37;;;19.17;;
10132;SDS011;5106;50.926;7.080;2023-02-11T09:32:46;34.60;;;20.10;;
10132;SDS011;5106;50.926;7.080;2023-02-11T09:35:12;31.53;;;19.53;;
10132;SDS011;5106;50.926;7.080;2023-02-11T09:37:38;33.87;;;20.13;;
10132;SDS011;5106;50.926;7.080;2023-02-11T09:40:04;31.87;;;20.03;;
10132;SDS011;5106;50.926;7.080;2023-02-11T09:45:14;29.33;;;19.60;;
10132;SDS011;5106;50.926;7.080;2023-02-11T09:47:46;29.40;;;19.47;;
10132;SDS011;5106;50.926;7.080;2023-02-11T09:50:29;28.67;;;18.87;;
10132;SDS011;5106;50.926;7.080;2023-02-11T09:52:57;28.40;;;18.37;;
10132;SDS011;5106;50.926;7.080;2023-02-11T09:55:45;29.40;;;19.33;;
10132;SDS011;5106;50.926;7.080;2023-02-11T09:58:14;34.83;;;19.43;;
10132;SDS011;5106;50.926;7.080;2023-02-11T10:00:57;29.50;;;19.37;;
10132;SDS011;5106;50.926;7.080;2023-02-11T10:19:26;29.90;;;18.73;;
10132;SDS011;5106;50.926;7.080;2023-02-11T10:22:11;29.20;;;18.60;;
10132;SDS011;5106;50.926;7.080;2023-02-11T10:25:07;27.53;;;18.27;;
10132;SDS011;5106;50.926;7.080;2023-02-11T10:27:48;37.83;;;23.37;;
10132;SDS011;5106;50.926;7.080;2023-02-11T10:30:35;32.13;;;20.03;;
10132;SDS011;5106;50.926;7.080;2023-02-11T10:35:54;32.30;;;19.83;;
10132;SDS011;5106;50.926;7.080;2023-02-11T10:38:19;32.70;;;20.17;;
10132;SDS011;5106;50.926;7.080;2023-02-11T10:40:45;26.73;;;19.03;;
10132;SDS011;5106;50.926;7.080;2023-02-11T10:43:15;30.53;;;20.40;;
10132;SDS011;5106;50.926;7.080;2023-02-11T10:51:19;28.30;;;20.37;;
10132;SDS011;5106;50.926;7.080;2023-02-11T10:54:09;29.10;;;19.23;;
